Time;durP1;ratioP1;P1;durP2;ratioP2;P2;SDS_P1;SDS_P2;PMS_P1;PMS_P2;Temp;Humidity;BMP_temperature;BMP_pressure;BME280_temperature;BME280_humidity;BME280_pressure;Samples;Min_cycle;Max_cycle;Signal;HPM_P1;HPM_P2
2020/12/21 00:00:11;;;;;;;29.63;25.23;;;;;;;8.09;94.26;101616.97;5013867;28;20053;-76
2020/12/21 00:03:19;;;;;;;28.95;25.48;;;;;;;8.10;93.99;101621.38;5014689;28;20048;-76
2020/12/21 00:06:23;;;;;;;33.80;27.42;;;;;;;8.05;93.90;101612.75;5013818;28;20041;-76
2020/12/21 00:09:28;;;;;;;32.08;25.77;;;;;;;8.04;94.76;101606.53;5014592;28;20053;-76
2020/12/21 00:12:33;;;;;;;31.50;26.70;;;;;;;8.03;94.28;101609.28;5014789;28;20052;-76
2020/12/21 00:15:37;;;;;;;33.83;28.17;;;;;;;8.02;94.21;101596.88;5013726;28;20069;-76
2020/12/21 00:18:42;;;;;;;34.42;28.17;;;;;;;8.05;94.79;101597.56;5014275;28;20057;-76
2020/12/21 00:21:52;;;;;;;33.00;28.10;;;;;;;8.07;94.56;101593.00;5014041;28;20073;-76
2020/12/21 00:24:56;;;;;;;31.63;26.85;;;;;;;8.07;94.85;101584.97;5013600;28;20397;-77
2020/12/21 00:28:01;;;;;;;35.85;29.00;;;;;;;7.97;94.56;101586.47;5014326;28;20049;-76
2020/12/21 00:31:05;;;;;;;35.67;29.80;;;;;;;8.07;94.95;101602.84;5014332;28;20068;-76
2020/12/21 00:34:10;;;;;;;35.75;28.63;;;;;;;8.11;94.50;101596.34;5014459;28;20049;-76
2020/12/21 00:37:15;;;;;;;39.33;30.42;;;;;;;8.00;94.87;101572.06;5014252;28;20069;-76
2020/12/21 00:40:20;;;;;;;40.55;31.45;;;;;;;7.94;95.07;101572.38;5013870;28;20053;-77
2020/12/21 00:43:24;;;;;;;39.33;30.92;;;;;;;8.04;95.14;101587.81;5014238;28;20052;-77
2020/12/21 00:46:30;;;;;;;39.47;31.60;;;;;;;8.03;94.89;101595.91;5014149;28;20385;-76
2020/12/21 00:49:35;;;;;;;37.33;30.67;;;;;;;8.03;94.84;101582.53;5013570;28;20042;-76
2020/12/21 00:52:39;;;;;;;42.78;31.23;;;;;;;8.02;95.04;101589.72;5014241;28;20057;-76
2020/12/21 00:55:43;;;;;;;40.75;31.30;;;;;;;7.98;94.78;101579.28;5013780;28;20050;-76
2020/12/21 00:58:49;;;;;;;39.75;30.17;;;;;;;8.05;94.95;101592.22;5013937;28;20097;-76
2020/12/21 01:01:53;;;;;;;40.55;31.48;;;;;;;8.05;95.13;101600.22;5013915;28;20052;-76
2020/12/21 01:04:57;;;;;;;41.03;30.88;;;;;;;8.03;94.65;101583.41;5014161;28;20413;-76
2020/12/21 01:08:02;;;;;;;38.45;30.00;;;;;;;8.05;94.77;101594.88;5013937;28;20045;-76
2020/12/21 01:11:11;;;;;;;43.08;32.58;;;;;;;8.03;94.59;101593.25;5012778;28;20061;-76
2020/12/21 01:14:15;;;;;;;44.83;31.65;;;;;;;7.96;94.97;101592.75;5013785;28;20104;-76
2020/12/21 01:17:20;;;;;;;43.20;31.25;;;;;;;7.96;94.75;101594.56;5012936;28;20034;-76
2020/12/21 01:20:24;;;;;;;46.83;32.22;;;;;;;7.99;95.23;101591.72;5013071;28;20053;-77
2020/12/21 01:23:29;;;;;;;39.85;30.67;;;;;;;8.03;95.30;101602.13;5013601;28;20049;-76
2020/12/21 01:26:33;;;;;;;40.58;29.27;;;;;;;8.05;95.28;101599.38;5013728;28;20053;-76
2020/12/21 01:29:37;;;;;;;43.58;30.35;;;;;;;8.08;94.56;101605.41;5013419;28;20042;-77
2020/12/21 01:32:41;;;;;;;39.05;30.25;;;;;;;8.09;94.62;101612.50;5020412;28;20385;-76
2020/12/21 01:35:46;;;;;;;41.40;30.65;;;;;;;8.05;94.88;101626.97;5013566;28;20495;-76
2020/12/21 01:38:51;;;;;;;42.40;30.90;;;;;;;8.08;94.74;101625.94;5013590;28;20390;-76
2020/12/21 01:41:55;;;;;;;41.42;30.05;;;;;;;8.15;94.67;101620.13;5012978;28;20069;-76
2020/12/21 01:44:59;;;;;;;47.90;32.17;;;;;;;8.14;94.64;101621.13;5012631;28;20045;-77
2020/12/21 01:48:04;;;;;;;44.92;31.15;;;;;;;8.10;94.70;101614.19;5013756;28;20049;-77
2020/12/21 01:51:11;;;;;;;50.30;33.53;;;;;;;8.02;94.84;101626.28;5013440;28;20106;-76
2020/12/21 01:54:16;;;;;;;53.38;35.35;;;;;;;7.94;95.15;101618.72;5013491;28;20117;-76
2020/12/21 01:57:20;;;;;;;55.72;37.30;;;;;;;7.90;95.25;101614.47;5013420;28;20370;-76
2020/12/21 02:00:24;;;;;;;58.88;37.15;;;;;;;7.91;95.56;101613.53;5013758;28;20065;-76
2020/12/21 02:03:29;;;;;;;57.08;35.97;;;;;;;7.96;95.48;101614.13;5011982;28;20044;-77
2020/12/21 02:06:34;;;;;;;57.35;37.25;;;;;;;7.90;95.21;101606.44;5013097;28;20042;-76
2020/12/21 02:09:38;;;;;;;62.92;38.17;;;;;;;7.94;95.70;101593.78;5017119;28;20052;-76
2020/12/21 02:12:43;;;;;;;60.58;39.58;;;;;;;7.90;95.77;101593.06;5016778;28;20403;-76
2020/12/21 02:15:47;;;;;;;66.57;39.30;;;;;;;7.91;95.63;101591.28;5015954;28;20038;-76
2020/12/21 02:18:51;;;;;;;62.75;40.03;;;;;;;7.93;95.46;101600.94;5016122;28;20077;-76
2020/12/21 02:21:57;;;;;;;58.70;37.03;;;;;;;7.95;95.68;101600.88;5016641;28;20061;-76
2020/12/21 02:25:01;;;;;;;61.92;39.58;;;;;;;7.93;95.41;101606.28;5016859;28;20050;-77
2020/12/21 02:28:05;;;;;;;64.05;39.35;;;;;;;7.96;95.57;101613.25;5016096;28;20393;-76
2020/12/21 02:31:10;;;;;;;60.50;36.97;;;;;;;7.99;95.32;101610.41;5016619;28;20069;-76
2020/12/21 02:34:20;;;;;;;57.47;37.28;;;;;;;7.99;95.51;101605.94;5016709;28;20053;-76
2020/12/21 02:37:25;;;;;;;63.55;38.33;;;;;;;8.00;95.54;101596.13;5016722;28;20057;-77
2020/12/21 02:40:29;;;;;;;60.20;38.05;;;;;;;7.97;95.68;101606.97;5016362;28;20045;-77
2020/12/21 02:43:34;;;;;;;63.17;39.85;;;;;;;7.88;95.32;101598.53;5015888;28;20053;-77
2020/12/21 02:46:42;;;;;;;63.55;38.50;;;;;;;7.95;95.65;101611.56;5016221;28;20061;-76
2020/12/21 02:49:47;;;;;;;58.40;37.20;;;;;;;7.99;95.33;101615.78;5015323;28;20073;-76
2020/12/21 02:52:51;;;;;;;59.58;37.75;;;;;;;8.06;95.72;101615.34;5016224;28;20390;-76
2020/12/21 02:55:56;;;;;;;56.38;35.88;;;;;;;8.04;95.13;101617.25;5015445;28;20073;-76
2020/12/21 02:59:00;;;;;;;52.38;34.80;;;;;;;8.03;95.14;101615.50;5015940;28;20483;-76
2020/12/21 03:02:04;;;;;;;51.85;35.92;;;;;;;7.99;94.80;101600.59;5015810;28;20053;-76
2020/12/21 03:05:08;;;;;;;54.33;35.95;;;;;;;8.04;95.12;101603.88;5015739;28;20042;-76
2020/12/21 03:07:48;;;;;;;55.55;36.30;;;;;;;8.04;95.21;101606.53;5110259;27;20713;-76
2020/12/21 03:10:52;;;;;;;52.80;35.20;;;;;;;8.01;94.80;101612.06;5111620;28;20058;-76
2020/12/21 03:13:57;;;;;;;56.67;35.63;;;;;;;7.96;94.81;101622.16;5111805;28;20043;-76
2020/12/21 03:17:03;;;;;;;48.10;33.97;;;;;;;8.02;94.93;101619.16;5110924;28;20114;-75
2020/12/21 03:20:07;;;;;;;55.03;33.72;;;;;;;7.97;95.05;101607.84;5111644;28;20043;-77
2020/12/21 03:23:12;;;;;;;55.05;35.63;;;;;;;7.93;95.15;101605.41;5111379;28;20051;-77
2020/12/21 03:26:16;;;;;;;53.78;34.13;;;;;;;7.88;94.83;101601.19;5111158;28;20054;-76
2020/12/21 03:29:21;;;;;;;61.10;36.70;;;;;;;7.84;95.34;101588.09;5111244;28;20058;-76
2020/12/21 03:32:26;;;;;;;53.58;34.90;;;;;;;7.88;94.88;101593.19;5111432;28;20054;-77
2020/12/21 03:35:30;;;;;;;53.22;35.78;;;;;;;7.90;95.43;101595.75;5110612;28;20051;-76
2020/12/21 03:38:35;;;;;;;55.92;34.88;;;;;;;7.92;94.88;101601.03;5111352;28;20051;-76
2020/12/21 03:41:39;;;;;;;54.30;34.67;;;;;;;7.87;95.48;101601.28;5109922;28;20497;-77
2020/12/21 03:44:44;;;;;;;55.85;34.42;;;;;;;7.80;94.92;101598.09;5110984;28;20055;-77
2020/12/21 03:47:48;;;;;;;52.20;32.58;;;;;;;7.83;94.93;101605.06;5110542;28;20398;-77
2020/12/21 03:50:53;;;;;;;53.85;33.95;;;;;;;7.90;95.00;101618.97;5109985;28;20482;-76
2020/12/21 03:53:57;;;;;;;53.55;35.47;;;;;;;7.85;95.33;101612.06;5110769;28;20059;-76
2020/12/21 03:57:02;;;;;;;56.70;37.75;;;;;;;7.85;95.45;101611.22;5109901;28;20054;-76
2020/12/21 04:00:07;;;;;;;54.92;35.33;;;;;;;7.90;95.65;101625.16;5110674;28;20050;-76
2020/12/21 04:03:18;;;;;;;52.13;34.33;;;;;;;7.86;95.05;101618.28;5109714;28;20061;-76
2020/12/21 04:06:22;;;;;;;54.13;36.47;;;;;;;7.86;94.90;101618.28;5109944;28;20067;-76
2020/12/21 04:09:26;;;;;;;54.95;35.50;;;;;;;7.89;94.87;101623.44;5110468;28;20055;-77
2020/12/21 04:12:30;;;;;;;55.45;34.60;;;;;;;7.85;94.99;101613.91;5109969;28;20451;-77
2020/12/21 04:15:35;;;;;;;51.20;34.22;;;;;;;7.88;95.48;101624.38;5109551;28;20051;-76
2020/12/21 04:18:39;;;;;;;53.97;35.88;;;;;;;7.90;95.21;101622.47;5099175;28;20051;-76
2020/12/21 04:21:43;;;;;;;55.30;36.00;;;;;;;7.92;94.88;101619.75;5096614;28;20055;-76
2020/12/21 04:24:48;;;;;;;51.97;34.63;;;;;;;7.88;94.79;101619.91;5096115;28;20390;-76
2020/12/21 04:27:52;;;;;;;59.17;36.03;;;;;;;7.84;95.06;101622.84;5095974;28;20054;-76
2020/12/21 04:30:56;;;;;;;55.53;35.33;;;;;;;7.79;95.13;101612.41;5096072;28;20054;-76
2020/12/21 04:34:01;;;;;;;58.58;35.53;;;;;;;7.74;95.15;101614.50;5096728;28;20383;-77
2020/12/21 04:37:05;;;;;;;54.47;36.33;;;;;;;7.71;95.59;101605.75;5096336;28;20043;-77
2020/12/21 04:40:09;;;;;;;52.20;35.00;;;;;;;7.63;95.44;101599.97;5095462;28;20051;-76
2020/12/21 04:43:13;;;;;;;57.55;37.92;;;;;;;7.60;95.60;101613.53;5095579;28;20102;-77
2020/12/21 04:46:18;;;;;;;60.03;38.38;;;;;;;7.62;95.36;101616.97;5095814;28;20071;-76
2020/12/21 04:49:24;;;;;;;62.15;37.92;;;;;;;7.50;95.79;101614.97;5095876;28;20043;-76
2020/12/21 04:52:31;;;;;;;58.00;37.08;;;;;;;7.52;95.76;101615.75;5096406;28;20039;-76
2020/12/21 04:55:35;;;;;;;53.03;36.95;;;;;;;7.60;95.92;101625.09;5095623;28;20051;-76
2020/12/21 04:58:46;;;;;;;56.92;35.80;;;;;;;7.57;95.81;101611.91;5096025;28;20063;-76
2020/12/21 05:01:53;;;;;;;56.78;37.05;;;;;;;7.62;96.43;101617.84;5095707;28;20055;-76
2020/12/21 05:04:57;;;;;;;53.38;35.63;;;;;;;7.59;95.91;101611.78;5096213;28;20043;-76
2020/12/21 05:08:18;;;;;;;56.65;37.30;;;;;;;7.59;96.14;101607.31;5095704;28;20110;-76
2020/12/21 05:11:22;;;;;;;55.88;36.72;;;;;;;7.47;95.90;101600.00;5095101;28;20051;-76
2020/12/21 05:14:35;;;;;;;53.78;35.72;;;;;;;7.51;96.05;101608.69;5095866;28;20043;-76
2020/12/21 05:17:40;;;;;;;51.00;35.78;;;;;;;7.48;96.25;101600.84;5095330;28;20051;-76
2020/12/21 05:20:58;;;;;;;44.85;32.70;;;;;;;7.47;96.17;101593.78;5095508;28;20055;-76
2020/12/21 05:24:03;;;;;;;51.95;34.20;;;;;;;7.43;96.22;101589.56;5095487;28;20066;-77
2020/12/21 05:27:18;;;;;;;45.03;32.63;;;;;;;7.51;95.88;101596.19;5095320;28;20055;-76
2020/12/21 05:30:22;;;;;;;45.45;32.75;;;;;;;7.46;95.81;101590.22;5094147;28;20043;-77
2020/12/21 05:33:27;;;;;;;46.83;34.38;;;;;;;7.47;96.18;101602.66;5095537;28;20051;-76
2020/12/21 05:36:32;;;;;;;48.38;33.70;;;;;;;7.36;96.00;101596.19;5094877;28;20051;-76
2020/12/21 05:39:53;;;;;;;46.78;34.45;;;;;;;7.35;96.43;101592.66;5095168;28;20405;-77
2020/12/21 05:42:57;;;;;;;44.83;33.03;;;;;;;7.39;96.63;101596.00;5095045;28;20062;-77
2020/12/21 05:46:10;;;;;;;47.38;34.25;;;;;;;7.43;95.83;101595.75;5094350;28;20114;-76
2020/12/21 05:49:15;;;;;;;43.88;33.45;;;;;;;7.48;96.08;101598.19;5094864;28;20051;-76
2020/12/21 05:52:34;;;;;;;42.45;31.45;;;;;;;7.46;96.11;101594.72;5094873;28;20063;-76
2020/12/21 05:55:39;;;;;;;46.67;35.38;;;;;;;7.39;96.15;101590.66;5094471;28;20118;-76
2020/12/21 05:58:43;;;;;;;47.00;34.42;;;;;;;7.38;96.52;101605.81;5094792;28;20387;-76
2020/12/21 06:01:59;;;;;;;50.05;33.85;;;;;;;7.32;95.75;101610.63;5094372;28;20494;-77
2020/12/21 06:05:11;;;;;;;45.10;32.63;;;;;;;7.37;95.77;101616.59;5082211;28;20063;-77
2020/12/21 06:08:16;;;;;;;63.17;47.70;;;;;;;7.32;95.88;101618.66;5094600;28;20063;-77
2020/12/21 06:11:28;;;;;;;101.75;72.88;;;;;;;7.35;95.79;101614.00;5094609;28;20055;-77
2020/12/21 06:14:34;;;;;;;90.50;61.53;;;;;;;7.33;96.18;101623.06;5073670;28;20051;-77
2020/12/21 06:17:39;;;;;;;54.42;37.38;;;;;;;7.28;95.89;101611.75;5073797;28;20596;-77
2020/12/21 06:20:43;;;;;;;48.80;33.47;;;;;;;7.28;96.09;101619.78;5072374;28;20048;-75
2020/12/21 06:23:47;;;;;;;51.70;33.80;;;;;;;7.16;96.03;101623.94;5061469;28;20055;-77
2020/12/21 06:26:53;;;;;;;45.50;33.05;;;;;;;7.16;96.09;101624.81;5053761;28;20455;-78
2020/12/21 06:29:59;;;;;;;44.72;31.77;;;;;;;7.11;96.33;101626.88;5053708;28;20048;-77
2020/12/21 06:33:03;;;;;;;47.85;33.15;;;;;;;7.11;95.91;101632.19;5052869;28;20052;-77
2020/12/21 06:36:08;;;;;;;44.25;33.60;;;;;;;7.02;95.79;101635.38;5053554;28;20044;-77
2020/12/21 06:39:25;;;;;;;42.53;32.15;;;;;;;7.02;95.76;101639.84;5052977;28;20388;-75
2020/12/21 06:42:30;;;;;;;40.33;31.85;;;;;;;6.99;95.92;101643.53;5052555;28;20060;-75
2020/12/21 06:45:35;;;;;;;42.45;30.42;;;;;;;6.98;95.77;101647.16;5053469;28;20044;-75
2020/12/21 06:48:40;;;;;;;42.22;32.30;;;;;;;6.97;95.42;101652.56;5070103;28;20438;-76
2020/12/21 06:51:46;;;;;;;43.13;33.00;;;;;;;6.97;95.76;101655.22;5073785;28;20051;-78
2020/12/21 06:54:53;;;;;;;47.63;36.80;;;;;;;6.95;95.77;101665.13;5073718;28;20051;-77
2020/12/21 06:57:57;;;;;;;45.95;34.95;;;;;;;6.98;95.56;101656.97;5073348;28;20067;-77
2020/12/21 07:01:01;;;;;;;40.75;31.08;;;;;;;7.07;95.22;101676.03;5073334;28;20056;-76
2020/12/21 07:04:11;;;;;;;45.60;33.22;;;;;;;6.91;94.60;101661.75;5073423;28;20051;-80
2020/12/21 07:07:17;;;;;;;46.00;31.83;;;;;;;6.92;94.17;101674.16;5072993;28;20047;-77
2020/12/21 07:10:21;;;;;;;48.33;32.00;;;;;;;6.83;94.21;101669.31;5072954;28;20474;-84
2020/12/21 07:13:26;;;;;;;48.47;31.80;;;;;;;6.79;94.42;101689.06;5072713;28;20047;-82
2020/12/21 07:16:30;;;;;;;43.88;32.70;;;;;;;6.93;94.33;101697.25;5072893;28;20518;-76
2020/12/21 07:19:38;;;;;;;46.65;34.70;;;;;;;6.98;93.81;101705.00;5073255;28;20055;-75
2020/12/21 07:22:43;;;;;;;45.92;33.95;;;;;;;7.32;93.52;101709.44;5072341;28;20051;-77
2020/12/21 07:25:51;;;;;;;46.25;31.73;;;;;;;7.76;92.94;101710.59;5072544;28;20514;-76
2020/12/21 07:28:58;;;;;;;42.63;31.75;;;;;;;8.32;90.13;101699.47;5072339;28;20055;-78
2020/12/21 07:32:03;;;;;;;41.97;28.58;;;;;;;8.61;88.17;101700.47;5072337;28;20391;-77
2020/12/21 07:35:08;;;;;;;33.35;25.55;;;;;;;8.92;86.20;101685.16;5072290;28;20518;-78
2020/12/21 07:38:13;;;;;;;34.05;23.73;;;;;;;9.42;83.61;101679.44;5072775;28;20055;-77
2020/12/21 07:41:26;;;;;;;34.17;22.02;;;;;;;9.88;81.36;101688.09;5073091;28;20071;-77
2020/12/21 07:44:47;;;;;;;33.78;22.35;;;;;;;9.54;81.51;101697.41;5071796;28;20127;-78
2020/12/21 07:47:53;;;;;;;36.53;22.33;;;;;;;9.11;83.13;101695.63;5071995;28;20052;-77
2020/12/21 07:51:02;;;;;;;28.63;22.23;;;;;;;8.98;84.42;101690.19;5073023;28;20059;-77
2020/12/21 07:54:07;;;;;;;28.45;21.20;;;;;;;10.10;82.10;101693.81;5075618;28;20067;-77
2020/12/21 07:57:13;;;;;;;28.60;21.60;;;;;;;10.61;78.24;101686.03;5082399;28;20529;-78
2020/12/21 08:00:18;;;;;;;23.38;19.13;;;;;;;11.06;76.76;101688.28;5055559;28;20052;-78
2020/12/21 08:03:24;;;;;;;22.27;18.92;;;;;;;12.10;72.98;101679.97;5073860;28;20414;-79
2020/12/21 08:06:29;;;;;;;24.55;17.98;;;;;;;12.77;69.31;101687.44;5074628;28;20505;-78
2020/12/21 08:09:37;;;;;;;26.02;17.67;;;;;;;12.33;69.73;101681.84;5075552;28;20047;-78
2020/12/21 08:12:42;;;;;;;24.15;18.15;;;;;;;11.84;71.20;101689.06;5076417;28;20387;-77
2020/12/21 08:15:46;;;;;;;24.50;19.17;;;;;;;11.32;73.44;101698.13;5076519;28;20047;-78
2020/12/21 08:18:51;;;;;;;21.50;18.80;;;;;;;11.08;74.86;101699.81;5075401;28;20470;-78
2020/12/21 08:22:03;;;;;;;27.15;18.65;;;;;;;12.10;71.44;101690.72;5071100;28;20052;-77
2020/12/21 08:25:14;;;;;;;27.65;17.58;;;;;;;13.34;67.27;101686.66;5076222;28;20052;-78
2020/12/21 08:28:32;;;;;;;23.45;17.65;;;;;;;14.74;61.54;101683.25;5075725;28;20041;-77
2020/12/21 08:31:44;;;;;;;23.85;17.00;;;;;;;15.11;59.97;101688.25;5072618;28;20399;-77
2020/12/21 08:34:56;;;;;;;25.00;17.90;;;;;;;15.34;59.14;101697.94;5056036;28;20045;-77
2020/12/21 08:38:06;;;;;;;22.92;16.42;;;;;;;14.79;60.21;101702.63;5055731;28;20052;-77
2020/12/21 08:41:10;;;;;;;25.98;17.55;;;;;;;13.76;63.27;101709.41;5055828;28;20056;-77
2020/12/21 08:44:21;;;;;;;26.25;19.98;;;;;;;12.93;66.19;101708.72;5061723;28;20100;-77
2020/12/21 08:47:25;;;;;;;23.10;17.95;;;;;;;12.39;68.38;101719.94;5058731;28;20055;-79
2020/12/21 08:50:29;;;;;;;28.70;19.77;;;;;;;11.89;70.09;101728.16;5054557;28;20075;-81
2020/12/21 08:53:34;;;;;;;27.30;19.60;;;;;;;11.55;72.25;101729.63;5054745;28;20041;-81
2020/12/21 08:56:38;;;;;;;28.30;20.42;;;;;;;11.46;72.85;101726.72;5055671;28;20064;-82
2020/12/21 08:59:43;;;;;;;27.20;20.33;;;;;;;11.42;73.24;101730.59;5055379;28;20041;-81
2020/12/21 09:02:47;;;;;;;28.40;21.45;;;;;;;11.46;72.93;101738.34;5055395;28;20052;-80
2020/12/21 09:05:51;;;;;;;28.67;21.23;;;;;;;11.63;72.47;101758.66;5062974;28;20051;-80
2020/12/21 09:08:55;;;;;;;32.47;22.75;;;;;;;11.65;72.25;101764.81;5075272;28;20118;-81
2020/12/21 09:11:59;;;;;;;29.83;21.45;;;;;;;11.60;72.56;101762.44;5063646;28;20041;-81
2020/12/21 09:15:04;;;;;;;30.45;20.95;;;;;;;12.00;71.35;101762.38;5052129;28;20033;-82
2020/12/21 09:18:08;;;;;;;32.70;22.05;;;;;;;12.63;69.91;101765.75;5054881;28;20059;-81
2020/12/21 09:21:24;;;;;;;27.02;20.05;;;;;;;12.80;68.83;101764.50;5055350;28;20395;-79
2020/12/21 09:24:28;;;;;;;27.15;20.65;;;;;;;12.62;69.92;101760.47;5053825;28;20060;-81
2020/12/21 09:27:32;;;;;;;27.02;21.33;;;;;;;12.48;70.22;101764.19;5054760;28;20064;-81
2020/12/21 09:30:37;;;;;;;28.30;20.80;;;;;;;12.36;70.80;101755.19;5057337;28;20056;-80
2020/12/21 09:33:42;;;;;;;25.88;19.27;;;;;;;12.23;71.02;101761.56;5065946;28;20107;-80
2020/12/21 09:36:46;;;;;;;25.88;18.77;;;;;;;12.15;72.04;101764.81;5073979;28;20399;-79
2020/12/21 09:39:50;;;;;;;24.40;18.55;;;;;;;12.01;72.26;101753.31;5074559;28;20033;-81
2020/12/21 09:42:55;;;;;;;28.40;17.58;;;;;;;11.74;73.67;101743.56;5073779;28;20048;-80
2020/12/21 09:46:01;;;;;;;26.33;18.08;;;;;;;11.72;73.74;101748.19;5066150;28;20048;-78
2020/12/21 09:49:05;;;;;;;26.63;18.10;;;;;;;11.93;73.41;101755.69;5053765;28;20056;-80
2020/12/21 09:52:10;;;;;;;22.50;17.27;;;;;;;11.66;73.97;101740.50;5054450;28;20060;-77
2020/12/21 09:55:15;;;;;;;22.38;17.58;;;;;;;11.57;74.29;101740.28;5054331;28;20048;-82
2020/12/21 09:58:20;;;;;;;20.25;15.95;;;;;;;11.62;74.71;101727.38;5060673;28;20052;-77
2020/12/21 10:01:28;;;;;;;19.65;16.80;;;;;;;11.66;74.20;101718.97;5073973;28;20071;-78
2020/12/21 10:04:32;;;;;;;21.48;17.05;;;;;;;11.63;73.38;101710.25;5072995;28;20487;-77
2020/12/21 10:07:38;;;;;;;17.98;16.17;;;;;;;11.60;73.71;101713.19;5072616;28;20426;-77
2020/12/21 10:10:50;;;;;;;18.20;15.90;;;;;;;11.46;74.25;101713.25;5074274;28;20510;-77
2020/12/21 10:13:54;;;;;;;18.15;16.13;;;;;;;11.61;74.03;101704.13;5073207;28;20063;-77
2020/12/21 10:16:59;;;;;;;20.08;17.80;;;;;;;11.44;73.68;101694.56;5073716;28;20055;-77
2020/12/21 10:20:04;;;;;;;18.10;15.73;;;;;;;11.66;73.75;101694.78;5073926;28;20047;-77
2020/12/21 10:23:09;;;;;;;18.35;16.35;;;;;;;11.44;74.28;101696.38;5073846;28;20048;-78
2020/12/21 10:26:13;;;;;;;18.10;16.17;;;;;;;11.75;72.68;101691.44;5073444;28;20111;-78
2020/12/21 10:29:17;;;;;;;18.20;15.52;;;;;;;11.68;72.59;101695.56;5073713;28;20044;-77
2020/12/21 10:32:22;;;;;;;18.38;16.23;;;;;;;11.67;73.20;101699.19;5073785;28;20048;-77
2020/12/21 10:35:27;;;;;;;21.13;16.70;;;;;;;11.87;73.28;101689.72;5064728;28;20411;-76
2020/12/21 10:38:32;;;;;;;18.42;16.40;;;;;;;11.84;73.20;101692.63;5073321;28;20405;-75
2020/12/21 10:41:36;;;;;;;19.20;15.75;;;;;;;11.82;73.10;101680.25;5053649;28;20123;-78
2020/12/21 10:44:41;;;;;;;18.80;14.82;;;;;;;11.88;72.68;101683.38;5053386;28;20049;-78
2020/12/21 10:47:46;;;;;;;18.73;14.93;;;;;;;11.98;72.54;101686.25;5053254;28;20056;-78
2020/12/21 10:50:51;;;;;;;17.98;16.08;;;;;;;11.96;73.32;101667.53;5053639;28;20197;-78
2020/12/21 10:53:55;;;;;;;18.27;16.30;;;;;;;11.96;73.52;101683.69;5053192;28;20056;-75
2020/12/21 10:57:03;;;;;;;17.80;15.73;;;;;;;11.88;73.34;101671.72;5068070;28;20044;-75
2020/12/21 11:00:07;;;;;;;19.52;15.50;;;;;;;11.84;74.28;101667.56;5058258;28;20049;-75
2020/12/21 11:03:12;;;;;;;21.23;16.13;;;;;;;11.85;74.06;101672.81;5053280;28;20044;-78
2020/12/21 11:06:24;;;;;;;18.67;16.13;;;;;;;11.77;73.75;101669.84;5052806;28;20041;-77
2020/12/21 11:09:28;;;;;;;17.33;15.52;;;;;;;11.60;74.58;101664.78;5053343;28;20404;-77
2020/12/21 11:12:32;;;;;;;19.55;16.60;;;;;;;11.56;75.13;101663.25;5052398;28;20049;-77
2020/12/21 11:15:38;;;;;;;18.85;16.33;;;;;;;11.50;74.78;101664.56;5053285;28;20044;-78
2020/12/21 11:18:42;;;;;;;19.30;17.25;;;;;;;11.63;74.48;101668.09;5053436;28;20048;-77
2020/12/21 11:21:47;;;;;;;17.75;16.00;;;;;;;11.54;74.84;101665.19;5053059;28;20048;-76
2020/12/21 11:24:51;;;;;;;18.88;16.98;;;;;;;11.40;75.69;101676.94;5053272;28;20041;-76
2020/12/21 11:27:55;;;;;;;17.83;15.88;;;;;;;11.31;75.60;101672.19;5061372;28;20047;-76
2020/12/21 11:31:00;;;;;;;19.23;17.10;;;;;;;11.36;76.04;101677.22;5077202;28;20045;-77
2020/12/21 11:34:05;;;;;;;21.92;17.50;;;;;;;11.25;77.48;101674.44;5077028;28;20059;-76
2020/12/21 11:37:09;;;;;;;21.98;18.63;;;;;;;10.98;78.35;101678.09;5077218;28;20071;-77
2020/12/21 11:40:14;;;;;;;21.70;19.40;;;;;;;10.81;79.67;101681.03;5069027;28;20074;-77
2020/12/21 11:43:18;;;;;;;22.67;19.90;;;;;;;10.76;80.12;101688.56;5073817;28;20049;-78
2020/12/21 11:46:35;;;;;;;25.48;20.88;;;;;;;10.66;80.20;101683.91;5065350;28;20479;-76
2020/12/21 11:49:40;;;;;;;23.98;21.45;;;;;;;10.57;80.34;101684.50;5070369;28;20056;-76
2020/12/21 11:52:45;;;;;;;25.65;21.33;;;;;;;10.44;80.21;101676.44;5076884;28;20040;-77
2020/12/21 11:55:50;;;;;;;25.73;22.30;;;;;;;10.54;80.93;101658.75;5055937;28;20047;-77
2020/12/21 11:58:54;;;;;;;24.10;21.50;;;;;;;10.60;80.22;101663.69;5060238;28;20044;-76
2020/12/21 12:02:02;;;;;;;22.98;20.52;;;;;;;10.67;80.23;101651.56;5060845;28;20507;-78
2020/12/21 12:05:11;;;;;;;25.60;21.52;;;;;;;10.78;79.31;101649.03;5063212;28;20403;-77
2020/12/21 12:08:16;;;;;;;27.92;22.45;;;;;;;10.87;79.32;101642.16;5076122;28;20044;-77
2020/12/21 12:11:22;;;;;;;26.08;23.27;;;;;;;10.77;78.81;101641.06;5075738;28;20044;-77
2020/12/21 12:14:26;;;;;;;29.90;25.83;;;;;;;10.78;78.68;101621.31;5076297;28;20075;-76
2020/12/21 12:17:31;;;;;;;29.48;26.08;;;;;;;10.91;78.13;101617.66;5076548;28;20071;-77
2020/12/21 12:20:36;;;;;;;31.25;27.45;;;;;;;10.83;78.01;101601.25;5064046;28;20037;-77
2020/12/21 12:23:40;;;;;;;30.25;26.95;;;;;;;10.98;77.49;101593.94;5065640;28;20036;-77
2020/12/21 12:26:45;;;;;;;29.50;26.08;;;;;;;11.05;77.48;101601.47;5075396;28;20391;-77
2020/12/21 12:29:53;;;;;;;32.78;28.55;;;;;;;10.96;78.88;101580.59;5069883;28;20048;-77
2020/12/21 12:32:57;;;;;;;29.73;26.48;;;;;;;11.00;78.83;101583.94;5056243;28;20044;-77
2020/12/21 12:36:02;;;;;;;30.90;27.02;;;;;;;11.16;78.25;101583.72;5066515;28;20048;-77
2020/12/21 12:39:07;;;;;;;27.95;24.75;;;;;;;11.19;77.71;101575.44;5055517;28;20044;-76
2020/12/21 12:42:13;;;;;;;30.38;27.05;;;;;;;11.13;77.64;101579.44;5055928;28;20488;-77
2020/12/21 12:45:17;;;;;;;29.77;25.80;;;;;;;11.07;78.27;101586.09;5055856;28;20499;-75
2020/12/21 12:48:21;;;;;;;31.42;26.77;;;;;;;10.99;78.17;101577.69;5055393;28;20057;-76
2020/12/21 12:51:26;;;;;;;29.50;26.10;;;;;;;10.91;78.66;101581.91;5066990;28;20047;-77
2020/12/21 12:54:30;;;;;;;31.17;27.65;;;;;;;10.88;79.40;101574.06;5074858;28;20059;-76
2020/12/21 12:57:34;;;;;;;30.75;26.50;;;;;;;10.89;78.88;101582.00;5070692;28;20049;-75
2020/12/21 13:00:40;;;;;;;33.45;28.40;;;;;;;10.86;79.15;101582.19;5055721;28;20049;-76
2020/12/21 13:03:44;;;;;;;33.33;27.52;;;;;;;10.80;79.29;101571.91;5055422;28;20052;-78
2020/12/21 13:06:49;;;;;;;33.95;28.85;;;;;;;10.70;80.11;101560.06;5060222;28;20064;-76
2020/12/21 13:09:53;;;;;;;33.25;27.88;;;;;;;10.70;80.35;101573.50;5075216;28;20044;-77
2020/12/21 13:12:58;;;;;;;38.90;28.45;;;;;;;10.68;79.85;101567.38;5055432;28;20044;-76
2020/12/21 13:16:04;;;;;;;32.08;27.17;;;;;;;10.76;78.95;101551.59;5050062;28;20040;-77
2020/12/21 13:19:08;;;;;;;36.03;27.50;;;;;;;10.62;79.80;101538.25;5068694;28;20051;-78
2020/12/21 13:22:16;;;;;;;31.45;26.75;;;;;;;10.59;79.90;101533.09;5074757;28;20399;-78
2020/12/21 13:25:21;;;;;;;34.53;29.17;;;;;;;10.48;80.13;101524.94;5074094;28;20045;-77
2020/12/21 13:28:26;;;;;;;30.58;27.27;;;;;;;10.62;79.78;101518.59;5072007;28;20385;-78
2020/12/21 13:31:31;;;;;;;34.95;29.90;;;;;;;10.39;80.67;101523.72;5058585;28;20064;-78
2020/12/21 13:34:35;;;;;;;31.05;27.52;;;;;;;10.42;81.13;101536.06;5062629;28;20041;-79
2020/12/21 13:37:40;;;;;;;35.35;29.02;;;;;;;10.44;80.83;101532.31;5053922;28;20049;-79
2020/12/21 13:40:44;;;;;;;31.92;28.40;;;;;;;10.57;80.42;101531.47;5056432;28;20471;-80
2020/12/21 13:43:48;;;;;;;31.70;27.75;;;;;;;10.71;79.83;101540.31;5073777;28;20037;-78
2020/12/21 13:46:55;;;;;;;30.80;26.77;;;;;;;10.75;79.85;101549.88;5074645;28;20043;-79
2020/12/21 13:49:59;;;;;;;31.02;26.40;;;;;;;10.86;79.17;101558.03;5074087;28;20119;-77
2020/12/21 13:53:03;;;;;;;31.05;27.75;;;;;;;10.91;79.24;101563.94;5073726;28;20067;-79
2020/12/21 13:56:08;;;;;;;38.08;27.75;;;;;;;10.75;79.60;101571.34;5060922;28;20392;-79
2020/12/21 13:59:12;;;;;;;31.83;28.45;;;;;;;10.41;80.88;101583.56;5063919;28;20045;-79
2020/12/21 14:02:17;;;;;;;33.65;28.95;;;;;;;10.40;81.45;101594.38;5054152;28;20060;-78
2020/12/21 14:05:21;;;;;;;31.10;27.55;;;;;;;10.42;81.15;101576.34;5052084;28;20052;-78
2020/12/21 14:08:26;;;;;;;33.90;28.40;;;;;;;10.27;81.83;101572.03;5070521;28;20036;-77